• Join FlightAware (Why Join?)
  • Login
  • US Flag 
10:06PM EDT


 

Airport Tracker/Info


-or-


 

Live Flight TrackerFlight Track Log ✈ SWA2166 ✈ 10-Apr-2013 ✈ KBHM - KHOU

Flight Track Log - Related Links

Times and Time Zones

All times are in EDT time to prevent confusion due to time zone crossing. See the SWA2166 flight status page for this flight to view local times or setup timezone preferences in your user account.

Time Position Orientation Groundspeed Altitude Reporting Facility
EDT Latitude Longitude Course Direction KTS MPH feet Rate Location/Type
07:00PM 33.5467 -86.7856 238° Southwest 165 190 1,600  Level Atlanta Center
07:02PM 33.5031 -86.8689 238° Southwest 240 276 4,200 2,400 Climbing Atlanta Center
07:03PM 33.4514 -86.9369 228° Southwest 292 336 7,900 3,000 Climbing Atlanta Center
07:04PM 33.4014 -87.0122 232° Southwest 292 336 10,500 2,760 Climbing Atlanta Center
07:05PM 33.3386 -87.1022 230° Southwest 326 375 13,500 3,120 Climbing Atlanta Center
07:06PM 33.2758 -87.1944 231° Southwest 353 406 16,800 3,060 Climbing Atlanta Center
07:07PM 33.2089 -87.2864 229° Southwest 364 419 19,700 2,520 Climbing Atlanta Center
07:08PM 33.1417 -87.3806 230° Southwest 370 426 21,900 2,220 Climbing Atlanta Center
07:10PM 33.0028 -87.6150 235° Southwest 390 449 26,700 2,160 Climbing Memphis Center
07:11PM 32.9447 -87.7283 239° Southwest 401 461 28,700 1,800 Climbing Memphis Center
07:12PM 32.8844 -87.8439 238° Southwest 412 474 30,400 1,620 Climbing Memphis Center
07:13PM 32.8342 -87.9442 239° Southwest 412 474 32,000 780 Climbing Memphis Center
07:14PM 32.7758 -88.0569 238° Southwest 412 474 32,000  Level Memphis Center
07:15PM 32.7153 -88.1722 238° Southwest 412 474 32,000  Level Memphis Center
07:16PM 32.6567 -88.2869 239° Southwest 412 474 32,000  Level Memphis Center
07:17PM 32.5939 -88.3994 237° Southwest 412 474 32,000  Level Memphis Center
07:18PM 32.5331 -88.5167 238° Southwest 412 474 32,000  Level Memphis Center
07:19PM 32.4761 -88.6261 238° Southwest 412 474 32,000  Level Memphis Center
07:20PM 32.4169 -88.7356 237° Southwest 407 468 32,000 -360 Level Memphis Center
07:21PM 32.3664 -88.8497 242° Southwest 407 468 31,300 -900 Descending Memphis Center
07:22PM 32.3303 -88.9731 251° West 401 461 30,200 -660 Descending Memphis Center
07:23PM 32.2958 -89.0942 251° West 396 456 30,000 -120 Descending Memphis Center
07:24PM 32.2594 -89.2175 251° West 396 456 30,000  Level Memphis Center
07:25PM 32.2253 -89.3406 252° West 396 456 30,000  Level Memphis Center
07:26PM 32.1886 -89.4589 250° West 396 456 30,000  Level Memphis Center
07:27PM 32.1539 -89.5819 252° West 396 456 30,000  Level Memphis Center
07:28PM 32.1189 -89.7000 251° West 391 450 30,000  Level Memphis Center
07:29PM 32.0842 -89.8203 251° West 391 450 30,000  Level Memphis Center
07:30PM 32.0533 -89.9431 254° West 391 450 30,000  Level Memphis Center
07:31PM 32.0475 -90.0681 267° West 385 443 30,000  Level Memphis Center
07:32PM 32.0475 -90.1956 270° West 390 449 30,000  Level Memphis Center
07:33PM 32.0456 -90.3231 269° West 390 449 30,000  Level Memphis Center
07:34PM 32.0414 -90.4528 268° West 390 449 30,000  Level Memphis Center
07:36PM 32.0283 -90.7519 267° West 399 459 30,000  Level Houston Center
07:37PM 32.0228 -90.8681 267° West 394 453 30,000  Level Houston Center
07:38PM 32.0039 -90.9939 260° West 391 450 30,000  Level Houston Center
07:39PM 31.9436 -91.1303 243° Southwest 393 452 30,000  Level Houston Center
07:40PM 31.8894 -91.2414 240° Southwest 392 451 30,000  Level Houston Center
07:41PM 31.8400 -91.3533 243° Southwest 388 447 30,000  Level Houston Center
07:43PM 31.7903 -91.4647 242° Southwest 384 442 30,000  Level Houston Center
07:44PM 31.7447 -91.5786 245° Southwest 385 443 30,000  Level Houston Center
07:45PM 31.6994 -91.6928 245° Southwest 387 445 30,000  Level Houston Center
07:46PM 31.6350 -91.8217 240° Southwest 383 441 30,000  Level Houston Center
07:47PM 31.5619 -91.9164 228° Southwest 388 447 30,000  Level Houston Center
07:48PM 31.5022 -92.0200 236° Southwest 383 441 30,000  Level Houston Center
07:49PM 31.4403 -92.1289 236° Southwest 382 440 30,000  Level Houston Center
07:50PM 31.3847 -92.2353 239° Southwest 384 442 30,000  Level Houston Center
07:51PM 31.3286 -92.3386 238° Southwest 379 436 30,000 -60 Level Houston Center
07:52PM 31.2711 -92.4428 237° Southwest 382 440 29,900  Descending Houston Center
07:53PM 31.2011 -92.5694 237° Southwest 388 447 30,000  Climbing Houston Center
07:54PM 31.1456 -92.6739 238° Southwest 382 440 30,000 -240 Level Houston Center
07:55PM 31.0856 -92.7775 236° Southwest 384 442 29,600 -600 Descending Houston Center
07:56PM 30.9836 -92.8361 206° Southwest 389 448 28,800 -780 Descending Houston Center
07:57PM 30.8831 -92.8817 201° Southwest 387 445 28,100 -420 Descending Houston Center
07:58PM 30.7819 -92.9261 201° Southwest 390 449 28,000 -60 Descending Houston Center
07:59PM 30.6650 -92.9842 203° Southwest 392 451 28,000  Level Houston Center
08:00PM 30.5803 -93.0622 218° Southwest 390 449 28,000  Level Houston Center
08:01PM 30.4964 -93.1397 219° Southwest 388 447 28,000  Level Houston Center
08:02PM 30.4631 -93.2567 252° West 385 443 28,000 -420 Level Houston Center
08:03PM 30.4358 -93.3783 255° West 390 449 27,200 -960 Descending Houston Center
08:04PM 30.4050 -93.5069 254° West 396 456 26,100 -1,140 Descending Houston Center
08:05PM 30.3739 -93.6386 255° West 399 459 24,900 -1,140 Descending Houston Center
08:06PM 30.3469 -93.7500 254° West 372 428 23,800 -1,080 Descending Houston Center
08:07PM 30.3158 -93.8561 251° West 354 407 22,700 -1,860 Descending Houston Center
08:08PM 30.2483 -93.9600 233° Southwest 340 391 20,000 -2,520 Descending Houston Center
08:09PM 30.2161 -94.0183 237° Southwest 334 384 18,600 -2,460 Descending Houston Center
08:09PM 30.2003 -94.0508 241° Southwest 333 383 17,500 -2,400 Descending Houston Center
08:10PM 30.1558 -94.1500 243° Southwest 317 365 15,200 -1,800 Descending Houston Center
08:11PM 30.1200 -94.2322 243° Southwest 318 366 13,900 -900 Descending Houston Center
08:12PM 30.0706 -94.3256 239° Southwest 315 362 13,400 -840 Descending Houston Center
08:13PM 29.9886 -94.3483 194° South 290 334 12,300 -1,380 Descending Houston Center
08:14PM 29.9114 -94.3536 183° South 271 312 10,700 -1,560 Descending Houston Center
08:16PM 29.8325 -94.3639 186° South 257 296 9,000 -1,680 Descending Houston Center
08:17PM 29.7778 -94.4050 213° Southwest 253 291 7,400 -1,560 Descending Houston Center
08:18PM 29.7147 -94.4467 210° Southwest 263 303 6,000 -660 Descending Houston Center
08:19PM 29.6533 -94.5078 221° Southwest 256 295 6,000  Level Houston Center
08:20PM 29.6250 -94.5833 247° West 256 295 6,000  Level Houston Center
08:21PM 29.5961 -94.6519 244° Southwest 260 299 6,000  Level Houston Center
08:22PM 29.5664 -94.7353 248° West 260 299 6,000  Level Houston Center
08:23PM 29.5339 -94.8139 245° Southwest 258 297 6,000  Level Houston Center
08:24PM 29.5067 -94.8864 247° West 246 283 6,000 -600 Level Houston Center
08:25PM 29.4836 -94.9472 246° West 216 249 4,900 -960 Descending Houston Center
08:26PM 29.4586 -95.0153 247° West 184 212 4,100 -720 Descending Houston Center
08:27PM 29.4750 -95.0781 287° West 242 278 3,400 -780 Descending Houston Center
08:28PM 29.5131 -95.1239 314° West 207 238 2,600 -720 Descending Houston Center
08:29PM 29.5483 -95.1650 315° West 179 206 2,100 -420 Descending Houston Center
08:30PM 29.5767 -95.2000 313° West 140 161 1,800 -540 Descending Houston Center
08:31PM 29.6003 -95.2261 316° Northwest 115 132 1,100 -660 Descending Houston Center
08:31PM 29.6064 -95.2344 310° West 140 161 1,000 -600 Descending Houston Center
08:32PM 29.6239 -95.2569 312° West 120 138 500 -720 Descending Houston Center
08:32PM 29.6297 -95.2608 330° Northwest 126 145 300 -240 Descending Houston Center
08:33PM 29.6528 -95.2875 315° West 124 143 200 -120 Descending Houston Center